createdAt,value
2022-08-25T00:00:15.544Z,22.12
2022-08-25T00:02:55.406Z,22.08
2022-08-25T00:05:32.195Z,22.03
2022-08-25T00:08:04.358Z,22.00
2022-08-25T00:10:35.441Z,21.97
2022-08-25T00:13:04.706Z,21.94
2022-08-25T00:15:32.987Z,21.91
2022-08-25T00:18:01.093Z,21.87
2022-08-25T00:20:29.946Z,21.85
2022-08-25T00:22:58.485Z,21.83
2022-08-25T00:25:26.950Z,21.80
2022-08-25T00:27:54.585Z,21.80
2022-08-25T00:30:22.022Z,21.80
2022-08-25T00:32:55.507Z,21.79
2022-08-25T00:35:26.753Z,21.77
2022-08-25T00:37:54.388Z,21.75
2022-08-25T00:40:25.355Z,21.74
2022-08-25T00:42:53.142Z,21.69
2022-08-25T00:45:21.241Z,21.67
2022-08-25T00:47:49.322Z,21.65
2022-08-25T00:50:17.345Z,21.65
2022-08-25T00:52:51.235Z,21.64
2022-08-25T00:55:25.162Z,21.62
2022-08-25T00:58:07.560Z,21.57
2022-08-25T01:00:41.066Z,21.55
2022-08-25T01:03:10.211Z,21.52
2022-08-25T01:05:41.119Z,21.50
2022-08-25T01:08:10.726Z,21.47
2022-08-25T01:10:44.566Z,21.45
2022-08-25T01:13:47.241Z,21.43
2022-08-25T01:16:17.141Z,21.39
2022-08-25T01:18:56.741Z,21.37
2022-08-25T01:21:29.810Z,21.36
2022-08-25T01:24:00.238Z,21.34
2022-08-25T01:26:34.974Z,21.29
2022-08-25T01:29:21.143Z,21.25
2022-08-25T01:31:51.717Z,21.23
2022-08-25T01:34:21.463Z,21.23
2022-08-25T01:36:49.202Z,21.21
2022-08-25T01:39:17.136Z,21.19
2022-08-25T01:42:12.117Z,21.18
2022-08-25T01:44:46.098Z,21.15
2022-08-25T01:47:15.079Z,21.12
2022-08-25T01:49:44.272Z,21.10
2022-08-25T01:52:25.324Z,21.09
2022-08-25T01:54:52.881Z,21.06
2022-08-25T01:57:20.349Z,21.02
2022-08-25T01:59:48.032Z,21.02
2022-08-25T02:02:18.261Z,21.00
2022-08-25T02:04:48.713Z,20.98
2022-08-25T02:07:18.828Z,20.94
2022-08-25T02:09:46.371Z,20.90
2022-08-25T02:12:14.027Z,20.89
2022-08-25T02:14:41.597Z,20.86
2022-08-25T02:17:09.761Z,20.83
2022-08-25T02:19:37.730Z,20.79
2022-08-25T02:22:05.315Z,20.77
2022-08-25T02:24:32.911Z,20.77
2022-08-25T02:27:00.661Z,20.76
2022-08-25T02:29:28.231Z,20.74
2022-08-25T02:31:55.699Z,20.73
2022-08-25T02:34:23.809Z,20.68
2022-08-25T02:36:51.373Z,20.64
2022-08-25T02:39:18.989Z,20.60
2022-08-25T02:41:46.539Z,20.55
2022-08-25T02:44:15.150Z,20.51
2022-08-25T02:46:42.684Z,20.47
2022-08-25T02:49:10.102Z,20.42
2022-08-25T02:51:37.724Z,20.37
2022-08-25T02:54:06.397Z,20.34
2022-08-25T02:56:34.746Z,20.29
2022-08-25T02:59:03.022Z,20.26
2022-08-25T03:01:32.691Z,20.23
2022-08-25T03:04:01.924Z,20.20
2022-08-25T03:06:30.593Z,20.16
2022-08-25T03:08:58.394Z,20.10
2022-08-25T03:11:26.628Z,20.05
2022-08-25T03:13:56.533Z,20.05
2022-08-25T03:16:27.858Z,20.00
2022-08-25T03:18:56.482Z,19.96
2022-08-25T03:21:26.588Z,19.94
2022-08-25T03:23:54.360Z,19.92
2022-08-25T03:26:41.525Z,19.89
2022-08-25T03:29:10.538Z,19.85
2022-08-25T03:31:38.995Z,19.82
2022-08-25T03:34:06.738Z,19.80
2022-08-25T03:36:34.257Z,19.77
2022-08-25T03:39:01.735Z,19.77
2022-08-25T03:41:32.720Z,19.75
2022-08-25T03:44:03.979Z,19.72
2022-08-25T03:46:37.330Z,19.69
2022-08-25T03:49:09.177Z,19.67
2022-08-25T03:51:42.605Z,19.66
2022-08-25T03:54:11.544Z,19.63
2022-08-25T03:56:39.652Z,19.58
2022-08-25T03:59:09.250Z,19.55
2022-08-25T04:01:43.407Z,19.54
2022-08-25T04:04:14.583Z,19.50
2022-08-25T04:06:44.350Z,19.46
2022-08-25T04:09:12.588Z,19.44
2022-08-25T04:11:40.285Z,19.41
2022-08-25T04:14:13.106Z,19.38
2022-08-25T04:16:45.498Z,19.35
2022-08-25T04:19:13.322Z,19.30
2022-08-25T04:21:42.286Z,19.21
2022-08-25T04:24:13.111Z,19.13
2022-08-25T04:26:48.454Z,19.09
2022-08-25T04:29:23.708Z,19.07
2022-08-25T04:31:54.266Z,19.06
2022-08-25T04:34:30.690Z,19.06
2022-08-25T04:37:02.520Z,19.05
2022-08-25T04:39:31.400Z,19.05
2022-08-25T04:42:00.696Z,19.03
2022-08-25T04:44:30.115Z,19.03
2022-08-25T04:46:58.401Z,19.02
2022-08-25T04:49:26.649Z,19.02
2022-08-25T04:51:56.241Z,19.03
2022-08-25T04:54:24.552Z,19.06
2022-08-25T04:56:56.440Z,19.09
2022-08-25T04:59:29.433Z,19.11
2022-08-25T05:02:02.219Z,19.10
2022-08-25T05:04:31.836Z,19.12
2022-08-25T05:06:59.909Z,19.16
2022-08-25T05:09:28.129Z,19.16
2022-08-25T05:11:55.720Z,19.18
2022-08-25T05:14:26.197Z,19.19
2022-08-25T05:16:58.116Z,19.19
2022-08-25T05:19:26.521Z,19.19
2022-08-25T05:21:54.835Z,19.22
2022-08-25T05:24:26.762Z,19.25
2022-08-25T05:26:54.417Z,19.27
2022-08-25T05:29:22.226Z,19.33
2022-08-25T05:31:50.955Z,19.37
2022-08-25T05:34:20.375Z,19.40
2022-08-25T05:36:49.463Z,19.42
2022-08-25T05:39:18.069Z,19.46
2022-08-25T05:41:45.752Z,19.50
2022-08-25T05:44:15.930Z,19.56
2022-08-25T05:46:45.463Z,19.61
2022-08-25T05:49:13.000Z,19.67
2022-08-25T05:51:40.534Z,19.74
2022-08-25T05:54:08.078Z,19.79
2022-08-25T05:56:35.653Z,19.85
2022-08-25T05:59:08.691Z,19.89
2022-08-25T06:01:55.622Z,19.94
2022-08-25T06:04:23.402Z,20.00
2022-08-25T06:06:53.867Z,20.06
2022-08-25T06:09:22.715Z,20.16
2022-08-25T06:11:54.730Z,20.23
2022-08-25T06:14:24.449Z,20.30
2022-08-25T06:16:52.888Z,20.37
2022-08-25T06:19:23.110Z,20.44
2022-08-25T06:21:55.668Z,20.55
2022-08-25T06:24:28.201Z,20.66
2022-08-25T06:26:57.698Z,20.78
2022-08-25T06:29:26.518Z,20.89
2022-08-25T06:31:54.073Z,21.00
2022-08-25T06:34:24.286Z,21.12
2022-08-25T06:36:52.580Z,21.23
2022-08-25T06:39:20.850Z,21.37
2022-08-25T06:41:56.458Z,21.55
2022-08-25T06:44:27.696Z,21.73
2022-08-25T06:46:55.614Z,21.91
2022-08-25T06:49:23.851Z,22.10
2022-08-25T06:51:51.385Z,22.26
2022-08-25T06:54:18.936Z,22.46
2022-08-25T06:56:46.950Z,22.66
2022-08-25T06:59:18.841Z,22.88
2022-08-25T07:01:46.578Z,23.09
2022-08-25T07:04:17.225Z,23.32
2022-08-25T07:06:45.008Z,23.52
2022-08-25T07:09:14.883Z,23.77
2022-08-25T07:11:44.104Z,24.01
2022-08-25T07:14:16.319Z,24.23
2022-08-25T07:16:49.397Z,24.45
2022-08-25T07:19:21.938Z,24.67
2022-08-25T07:21:53.108Z,24.86
2022-08-25T07:24:22.055Z,25.05
2022-08-25T07:26:50.366Z,25.23
2022-08-25T07:29:31.736Z,25.43
2022-08-25T07:32:02.079Z,25.63
2022-08-25T07:34:52.443Z,25.77
2022-08-25T07:37:47.493Z,25.97
2022-08-25T07:40:17.932Z,26.15
2022-08-25T07:42:46.096Z,26.30
2022-08-25T07:45:20.400Z,26.43
2022-08-25T07:50:43.963Z,26.77
2022-08-25T07:53:16.641Z,26.89
2022-08-25T07:55:45.216Z,27.03
2022-08-25T07:58:15.670Z,27.13
2022-08-25T08:00:43.242Z,27.19
2022-08-25T08:03:19.744Z,27.29
2022-08-25T08:05:59.729Z,27.40
2022-08-25T08:08:30.530Z,27.51
2022-08-25T08:11:04.629Z,27.62
2022-08-25T08:13:36.813Z,27.72
2022-08-25T08:16:14.199Z,27.83
2022-08-25T08:18:46.195Z,27.93
2022-08-25T08:21:20.118Z,28.04
2022-08-25T08:23:49.632Z,28.23
2022-08-25T08:26:18.249Z,28.38
2022-08-25T08:28:51.834Z,28.52
2022-08-25T08:31:24.135Z,28.54
2022-08-25T08:33:57.291Z,28.58
2022-08-25T08:36:26.315Z,28.69
2022-08-25T08:38:54.814Z,28.82
2022-08-25T08:45:12.546Z,28.92
2022-08-25T08:47:59.970Z,28.97
2022-08-25T08:50:49.548Z,29.06
2022-08-25T08:54:15.676Z,29.12
2022-08-25T08:56:50.595Z,29.08
2022-08-25T08:59:31.388Z,29.08
2022-08-25T09:02:03.993Z,29.09
2022-08-25T09:04:52.022Z,29.16
2022-08-25T09:07:30.098Z,29.25
2022-08-25T09:09:59.723Z,29.42
2022-08-25T09:12:50.315Z,29.62
2022-08-25T09:16:47.536Z,29.79
2022-08-25T09:19:53.188Z,29.86
2022-08-25T09:22:48.847Z,30.03
2022-08-25T09:25:53.457Z,30.17
2022-08-25T09:28:30.501Z,30.26
2022-08-25T09:31:19.389Z,30.36
2022-08-25T09:33:47.175Z,30.45
2022-08-25T09:36:16.584Z,30.58
2022-08-25T09:38:47.472Z,30.66
2022-08-25T09:41:35.547Z,30.80
2022-08-25T09:44:03.388Z,30.93
2022-08-25T09:46:31.480Z,30.94
2022-08-25T09:49:13.285Z,31.00
2022-08-25T09:51:43.391Z,31.07
2022-08-25T09:54:13.873Z,31.15
2022-08-25T09:56:58.355Z,31.19
2022-08-25T09:59:35.086Z,31.21
2022-08-25T10:02:21.345Z,31.23
2022-08-25T10:04:48.870Z,31.19
2022-08-25T10:07:25.717Z,31.17
2022-08-25T10:10:01.763Z,31.27
2022-08-25T10:12:42.628Z,31.34
2022-08-25T10:15:33.882Z,31.28
2022-08-25T10:18:29.573Z,31.25
2022-08-25T10:21:18.979Z,31.21
2022-08-25T10:23:53.423Z,31.34
2022-08-25T10:27:03.292Z,31.54
2022-08-25T10:30:02.836Z,31.70
2022-08-25T10:33:05.127Z,31.80
2022-08-25T10:36:08.690Z,31.86
2022-08-25T10:38:58.312Z,31.90
2022-08-25T10:42:16.898Z,32.00
2022-08-25T10:45:22.718Z,32.10
2022-08-25T10:48:42.708Z,32.15
2022-08-25T10:51:58.766Z,32.20
2022-08-25T10:54:46.546Z,32.33
2022-08-25T10:57:49.238Z,32.43
2022-08-25T11:00:38.079Z,32.56
2022-08-25T11:03:52.704Z,32.62
2022-08-25T11:06:39.013Z,32.66
2022-08-25T11:09:13.782Z,32.69
2022-08-25T11:12:37.985Z,32.76
2022-08-25T11:15:28.771Z,32.87
2022-08-25T11:18:04.047Z,32.95
2022-08-25T11:21:15.673Z,33.06
2022-08-25T11:24:19.554Z,33.02
2022-08-25T11:26:56.414Z,33.01
2022-08-25T11:29:35.282Z,33.12
2022-08-25T11:32:04.966Z,33.27
2022-08-25T11:34:36.856Z,33.40
2022-08-25T11:37:28.930Z,33.47
2022-08-25T11:40:19.261Z,33.47
2022-08-25T11:43:35.637Z,33.45
2022-08-25T11:46:45.495Z,33.51
2022-08-25T11:49:59.722Z,33.61
2022-08-25T11:52:32.923Z,33.72
2022-08-25T11:55:10.674Z,33.81
2022-08-25T11:57:39.247Z,33.89
2022-08-25T12:00:15.619Z,33.92
2022-08-25T12:02:51.201Z,33.90
2022-08-25T12:05:18.880Z,33.90
2022-08-25T12:07:47.084Z,33.96
2022-08-25T12:10:26.068Z,34.00
2022-08-25T12:13:43.298Z,33.96
2022-08-25T12:16:35.439Z,33.85
2022-08-25T12:19:36.751Z,33.87
2022-08-25T12:22:05.588Z,33.95
2022-08-25T12:24:47.291Z,34.09
2022-08-25T12:27:24.907Z,34.23
2022-08-25T12:30:21.008Z,34.25
2022-08-25T12:33:23.635Z,34.21
2022-08-25T12:36:00.139Z,34.20
2022-08-25T12:38:35.086Z,34.13
2022-08-25T12:41:24.239Z,34.04
2022-08-25T12:44:10.350Z,33.96
2022-08-25T12:46:43.322Z,33.86
2022-08-25T12:49:34.743Z,33.87
2022-08-25T12:52:18.621Z,33.90
2022-08-25T12:54:55.426Z,33.94
2022-08-25T12:57:43.127Z,34.01
2022-08-25T13:00:22.570Z,34.12
2022-08-25T13:03:15.994Z,34.19
2022-08-25T13:06:08.264Z,34.13
2022-08-25T13:08:56.290Z,34.20
2022-08-25T13:11:37.247Z,34.32
2022-08-25T13:14:21.744Z,34.38
2022-08-25T13:16:59.063Z,34.47
2022-08-25T13:19:28.093Z,34.59
2022-08-25T13:22:16.148Z,34.63
2022-08-25T13:24:50.870Z,34.71
2022-08-25T13:27:26.846Z,34.84
2022-08-25T13:29:59.777Z,34.91
2022-08-25T13:32:36.150Z,35.00
2022-08-25T13:35:20.287Z,35.09
2022-08-25T13:37:49.520Z,35.01
2022-08-25T13:40:25.868Z,34.97
2022-08-25T13:43:05.760Z,35.03
2022-08-25T13:45:44.387Z,35.17
2022-08-25T13:48:22.980Z,35.21
2022-08-25T13:50:51.760Z,35.28
2022-08-25T13:53:26.449Z,35.31
2022-08-25T13:56:01.579Z,35.35
2022-08-25T13:58:39.335Z,35.30
2022-08-25T14:01:47.463Z,35.33
2022-08-25T14:04:32.283Z,35.27
2022-08-25T14:07:35.294Z,35.35
2022-08-25T14:10:29.572Z,35.26
2022-08-25T14:13:30.954Z,35.36
2022-08-25T14:16:25.476Z,35.56
2022-08-25T14:19:00.659Z,35.52
2022-08-25T14:21:33.542Z,35.46
2022-08-25T14:24:02.212Z,35.41
2022-08-25T14:26:29.655Z,35.29
2022-08-25T14:28:58.329Z,35.32
2022-08-25T14:31:36.033Z,35.25
2022-08-25T14:34:14.611Z,35.14
2022-08-25T14:36:42.825Z,35.08
2022-08-25T14:39:12.881Z,35.16
2022-08-25T14:41:47.480Z,35.21
2022-08-25T14:44:21.379Z,35.18
2022-08-25T14:46:56.482Z,35.15
2022-08-25T14:49:33.694Z,35.32
2022-08-25T14:52:09.848Z,35.43
2022-08-25T14:54:37.816Z,35.51
2022-08-25T14:57:08.384Z,35.62
2022-08-25T14:59:36.358Z,35.78
2022-08-25T15:02:19.883Z,35.93
2022-08-25T15:04:54.433Z,36.01
2022-08-25T15:07:43.451Z,36.03
2022-08-25T15:10:13.717Z,36.12
2022-08-25T15:12:47.791Z,36.20
2022-08-25T15:15:17.544Z,36.26
2022-08-25T15:17:47.223Z,36.26
2022-08-25T15:20:17.925Z,36.20
2022-08-25T15:22:45.551Z,36.19
2022-08-25T15:25:14.541Z,36.30
2022-08-25T15:27:42.062Z,36.40
2022-08-25T15:30:10.743Z,36.46
2022-08-25T15:32:41.081Z,36.50
2022-08-25T15:35:11.079Z,36.49
2022-08-25T15:37:42.727Z,36.46
2022-08-25T15:40:10.813Z,36.49
2022-08-25T15:42:38.545Z,36.52
2022-08-25T15:45:12.132Z,36.56
2022-08-25T15:47:40.580Z,36.58
2022-08-25T15:50:16.839Z,36.57
2022-08-25T15:52:46.514Z,36.59
2022-08-25T15:55:17.802Z,36.66
2022-08-25T15:57:49.620Z,36.71
2022-08-25T16:00:19.583Z,36.74
2022-08-25T16:02:49.770Z,36.74
2022-08-25T16:05:17.373Z,36.61
2022-08-25T16:07:51.518Z,36.54
2022-08-25T16:10:19.858Z,36.55
2022-08-25T16:12:47.696Z,36.57
2022-08-25T16:15:16.085Z,36.64
2022-08-25T16:17:45.964Z,36.66
2022-08-25T16:20:17.216Z,36.68
2022-08-25T16:22:45.371Z,36.65
2022-08-25T16:25:13.751Z,36.58
2022-08-25T16:27:41.381Z,36.51
2022-08-25T16:30:16.810Z,36.52
2022-08-25T16:32:46.668Z,36.54
2022-08-25T16:35:14.591Z,36.56
2022-08-25T16:37:42.767Z,36.56
2022-08-25T16:40:14.614Z,36.55
2022-08-25T16:42:42.552Z,36.55
2022-08-25T16:45:10.549Z,36.51
2022-08-25T16:47:38.204Z,36.38
2022-08-25T16:50:11.306Z,36.32
2022-08-25T16:52:58.317Z,36.24
2022-08-25T16:55:39.042Z,36.12
2022-08-25T16:58:12.651Z,35.95
2022-08-25T17:00:44.641Z,35.82
2022-08-25T17:03:13.065Z,35.68
2022-08-25T17:05:43.217Z,35.60
2022-08-25T17:08:29.511Z,35.53
2022-08-25T17:11:12.191Z,35.40
2022-08-25T17:13:49.837Z,35.25
2022-08-25T17:16:21.226Z,35.10
2022-08-25T17:18:49.011Z,34.93
2022-08-25T17:21:24.340Z,34.75
2022-08-25T17:23:55.546Z,34.55
2022-08-25T17:26:27.920Z,34.35
2022-08-25T17:29:01.206Z,34.17
2022-08-25T17:31:29.998Z,34.01
2022-08-25T17:33:58.636Z,33.87
2022-08-25T17:36:27.095Z,33.73
2022-08-25T17:38:56.966Z,33.56
2022-08-25T17:41:25.283Z,33.37
2022-08-25T17:43:52.916Z,33.16
2022-08-25T17:46:21.394Z,32.92
2022-08-25T17:48:48.978Z,32.72
2022-08-25T17:51:16.681Z,32.53
2022-08-25T17:53:44.466Z,32.31
2022-08-25T17:56:19.343Z,32.14
2022-08-25T17:58:47.854Z,31.94
2022-08-25T18:01:26.959Z,31.73
2022-08-25T18:03:57.335Z,31.54
2022-08-25T18:06:29.457Z,31.35
2022-08-25T18:09:00.015Z,31.18
2022-08-25T18:11:28.771Z,30.98
2022-08-25T18:13:59.953Z,30.80
2022-08-25T18:16:28.683Z,30.66
2022-08-25T18:18:57.179Z,30.52
2022-08-25T18:21:25.417Z,30.38
2022-08-25T18:23:59.014Z,30.23
2022-08-25T18:26:27.283Z,30.11
2022-08-25T18:28:55.399Z,30.00
2022-08-25T18:31:23.545Z,29.88
2022-08-25T18:33:52.224Z,29.72
2022-08-25T18:36:22.795Z,29.54
2022-08-25T18:39:09.690Z,29.31
2022-08-25T18:41:41.601Z,29.06
2022-08-25T18:44:10.993Z,28.85
2022-08-25T18:46:40.155Z,28.65
2022-08-25T18:49:08.728Z,28.48
2022-08-25T18:51:37.328Z,28.33
2022-08-25T18:54:05.833Z,28.20
2022-08-25T18:56:34.577Z,28.08
2022-08-25T18:59:03.904Z,27.94
2022-08-25T19:01:31.671Z,27.82
2022-08-25T19:03:59.509Z,27.72
2022-08-25T19:06:30.607Z,27.59
2022-08-25T19:08:59.802Z,27.45
2022-08-25T19:11:27.374Z,27.34
2022-08-25T19:13:57.497Z,27.25
2022-08-25T19:16:39.984Z,27.16
2022-08-25T19:19:12.447Z,27.03
2022-08-25T19:21:41.472Z,26.94
2022-08-25T19:24:12.424Z,26.82
2022-08-25T19:26:42.022Z,26.71
2022-08-25T19:29:14.219Z,26.62
2022-08-25T19:31:45.807Z,26.51
2022-08-25T19:34:28.388Z,26.40
2022-08-25T19:37:01.729Z,26.26
2022-08-25T19:39:35.023Z,26.12
2022-08-25T19:42:03.105Z,25.98
2022-08-25T19:44:31.798Z,25.86
2022-08-25T19:47:00.405Z,25.76
2022-08-25T19:49:37.098Z,25.65
2022-08-25T19:52:10.677Z,25.57
2022-08-25T19:54:44.286Z,25.49
2022-08-25T19:57:14.472Z,25.43
2022-08-25T19:59:56.037Z,25.35
2022-08-25T20:02:28.475Z,25.31
2022-08-25T20:04:59.937Z,25.25
2022-08-25T20:07:32.778Z,25.20
2022-08-25T20:10:01.712Z,25.16
2022-08-25T20:12:30.158Z,25.11
2022-08-25T20:14:58.278Z,25.09
2022-08-25T20:17:26.019Z,25.06
2022-08-25T20:19:57.417Z,25.03
2022-08-25T20:22:29.119Z,25.00
2022-08-25T20:25:01.241Z,24.95
2022-08-25T20:27:40.941Z,24.91
2022-08-25T20:30:16.638Z,24.86
2022-08-25T20:32:45.629Z,24.81
2022-08-25T20:35:14.473Z,24.77
2022-08-25T20:37:45.461Z,24.72
2022-08-25T20:40:18.136Z,24.69
2022-08-25T20:42:48.430Z,24.65
2022-08-25T20:45:21.748Z,24.61
2022-08-25T20:47:51.058Z,24.55
2022-08-25T20:50:19.558Z,24.52
2022-08-25T20:52:48.465Z,24.47
2022-08-25T20:55:18.798Z,24.46
2022-08-25T20:57:46.851Z,24.40
2022-08-25T21:00:17.474Z,24.37
2022-08-25T21:02:46.270Z,24.29
2022-08-25T21:05:14.257Z,24.23
2022-08-25T21:07:42.745Z,24.19
2022-08-25T21:10:14.487Z,24.13
2022-08-25T21:12:43.145Z,24.05
2022-08-25T21:15:13.324Z,23.98
2022-08-25T21:17:51.123Z,23.92
2022-08-25T21:20:18.985Z,23.85
2022-08-25T21:22:47.543Z,23.78
2022-08-25T21:25:16.406Z,23.70
2022-08-25T21:27:43.856Z,23.66
2022-08-25T21:30:12.552Z,23.60
2022-08-25T21:32:39.967Z,23.52
2022-08-25T21:35:23.275Z,23.47
2022-08-25T21:37:53.087Z,23.43
2022-08-25T21:40:23.034Z,23.39
2022-08-25T21:42:52.102Z,23.37
2022-08-25T21:45:21.672Z,23.33
2022-08-25T21:47:49.842Z,23.26
2022-08-25T21:50:19.792Z,23.21
2022-08-25T21:52:47.321Z,23.16
2022-08-25T21:55:23.105Z,23.09
2022-08-25T21:57:51.433Z,23.05
2022-08-25T22:00:21.351Z,22.99
2022-08-25T22:02:51.411Z,22.94
2022-08-25T22:05:19.007Z,22.88
2022-08-25T22:07:46.850Z,22.82
2022-08-25T22:10:17.594Z,22.78
2022-08-25T22:12:47.904Z,22.70
2022-08-25T22:15:19.412Z,22.65
2022-08-25T22:17:48.117Z,22.61
2022-08-25T22:20:18.431Z,22.57
2022-08-25T22:22:45.870Z,22.52
2022-08-25T22:25:13.985Z,22.50
2022-08-25T22:27:42.183Z,22.46
2022-08-25T22:30:10.678Z,22.44
2022-08-25T22:32:38.172Z,22.41
2022-08-25T22:35:07.219Z,22.36
2022-08-25T22:37:35.508Z,22.30
2022-08-25T22:40:03.727Z,22.22
2022-08-25T22:42:31.434Z,22.17
2022-08-25T22:44:59.027Z,22.13
2022-08-25T22:47:27.070Z,22.10
2022-08-25T22:49:55.592Z,22.07
2022-08-25T22:52:31.953Z,22.04
2022-08-25T22:55:02.940Z,22.00
2022-08-25T22:57:30.802Z,21.96
2022-08-25T22:59:59.253Z,21.90
2022-08-25T23:02:27.568Z,21.85
2022-08-25T23:04:57.983Z,21.81
2022-08-25T23:07:29.240Z,21.78
2022-08-25T23:10:03.337Z,21.77
2022-08-25T23:12:32.471Z,21.72
2022-08-25T23:15:00.510Z,21.69
2022-08-25T23:17:31.899Z,21.66
2022-08-25T23:19:59.283Z,21.58
2022-08-25T23:22:27.031Z,21.56
2022-08-25T23:24:54.601Z,21.55
2022-08-25T23:27:22.305Z,21.53
2022-08-25T23:29:50.229Z,21.49
2022-08-25T23:32:18.347Z,21.46
2022-08-25T23:34:47.255Z,21.41
2022-08-25T23:37:18.510Z,21.38
2022-08-25T23:39:47.942Z,21.32
2022-08-25T23:42:19.695Z,21.27
2022-08-25T23:44:49.264Z,21.26
2022-08-25T23:47:18.148Z,21.25
2022-08-25T23:49:48.210Z,21.21
2022-08-25T23:52:17.498Z,21.20
2022-08-25T23:54:46.054Z,21.18
2022-08-25T23:57:13.837Z,21.17
2022-08-25T23:59:43.292Z,21.15
